createdAt,value
2022-08-14T00:00:18.652Z,0.00
2022-08-14T00:01:23.837Z,0.00
2022-08-14T00:02:18.704Z,0.00
2022-08-14T00:03:18.646Z,0.00
2022-08-14T00:04:31.905Z,0.00
2022-08-14T00:05:18.601Z,0.00
2022-08-14T00:06:27.720Z,0.00
2022-08-14T00:07:18.574Z,0.00
2022-08-14T00:08:43.555Z,0.00
2022-08-14T00:09:18.588Z,0.00
2022-08-14T00:10:51.929Z,0.00
2022-08-14T00:11:18.531Z,0.00
2022-08-14T00:12:24.326Z,0.00
2022-08-14T00:13:18.520Z,0.00
2022-08-14T00:14:18.503Z,0.00
2022-08-14T00:15:18.522Z,0.00
2022-08-14T00:16:41.646Z,0.00
2022-08-14T00:17:18.480Z,0.00
2022-08-14T00:19:05.347Z,0.00
2022-08-14T00:19:21.509Z,0.00
2022-08-14T00:20:23.987Z,0.00
2022-08-14T00:21:18.425Z,0.00
2022-08-14T00:22:44.443Z,0.00
2022-08-14T00:23:18.705Z,0.00
2022-08-14T00:24:23.283Z,0.00
2022-08-14T00:25:18.405Z,0.00
2022-08-14T00:26:21.846Z,0.00
2022-08-14T00:27:18.363Z,0.00
2022-08-14T00:28:18.401Z,0.00
2022-08-14T00:29:18.332Z,0.00
2022-08-14T00:30:18.340Z,0.00
2022-08-14T00:31:18.324Z,0.00
2022-08-14T00:32:52.369Z,0.00
2022-08-14T00:33:18.290Z,0.00
2022-08-14T00:34:37.216Z,0.00
2022-08-14T00:35:18.285Z,0.00
2022-08-14T00:36:35.629Z,0.00
2022-08-14T00:37:18.238Z,0.00
2022-08-14T00:38:18.230Z,0.00
2022-08-14T00:39:18.678Z,0.00
2022-08-14T00:40:27.457Z,0.00
2022-08-14T00:41:18.201Z,0.00
2022-08-14T00:42:21.199Z,0.00
2022-08-14T00:43:18.181Z,0.00
2022-08-14T00:44:21.251Z,0.00
2022-08-14T00:45:18.162Z,0.00
2022-08-14T00:47:27.709Z,0.00
2022-08-14T00:48:34.458Z,0.00
2022-08-14T00:49:30.186Z,0.00
2022-08-14T00:50:28.687Z,0.00
2022-08-14T00:51:37.690Z,0.00
2022-08-14T00:52:28.659Z,0.00
2022-08-14T00:53:28.643Z,0.00
2022-08-14T00:54:28.646Z,0.00
2022-08-14T00:55:30.080Z,0.00
2022-08-14T00:56:31.221Z,0.00
2022-08-14T00:57:28.598Z,0.00
2022-08-14T00:58:33.036Z,0.00
2022-08-14T00:59:28.960Z,0.00
2022-08-14T01:00:37.447Z,0.00
2022-08-14T01:01:28.645Z,0.00
2022-08-14T01:02:31.897Z,0.00
2022-08-14T01:03:28.539Z,0.00
2022-08-14T01:04:38.001Z,0.00
2022-08-14T01:05:29.241Z,0.00
2022-08-14T01:06:30.330Z,0.00
2022-08-14T01:07:28.493Z,0.00
2022-08-14T01:08:57.928Z,0.00
2022-08-14T01:09:28.502Z,0.00
2022-08-14T01:10:28.478Z,0.00
2022-08-14T01:11:35.234Z,0.00
2022-08-14T01:12:29.508Z,0.00
2022-08-14T01:13:28.432Z,0.00
2022-08-14T01:14:28.718Z,0.00
2022-08-14T01:15:57.485Z,0.00
2022-08-14T01:16:31.036Z,0.00
2022-08-14T01:17:28.425Z,0.00
2022-08-14T01:18:28.376Z,0.00
2022-08-14T01:19:28.365Z,0.00
2022-08-14T01:20:29.714Z,0.00
2022-08-14T01:21:28.348Z,0.00
2022-08-14T01:22:29.539Z,0.00
2022-08-14T01:23:41.769Z,0.00
2022-08-14T01:24:30.895Z,0.00
2022-08-14T01:25:28.301Z,0.00
2022-08-14T01:26:35.011Z,0.00
2022-08-14T01:27:28.298Z,0.00
2022-08-14T01:28:46.409Z,0.00
2022-08-14T01:29:58.436Z,0.00
2022-08-14T01:30:28.244Z,0.00
2022-08-14T01:31:30.375Z,0.00
2022-08-14T01:32:30.070Z,0.00
2022-08-14T01:33:28.209Z,0.00
2022-08-14T01:35:17.700Z,0.00
2022-08-14T01:36:04.624Z,0.00
2022-08-14T01:36:28.181Z,0.00
2022-08-14T01:37:28.165Z,0.00
2022-08-14T01:38:28.155Z,0.00
2022-08-14T01:39:28.218Z,0.00
2022-08-14T01:40:36.224Z,0.00
2022-08-14T01:41:29.855Z,0.00
2022-08-14T01:42:32.035Z,0.00
2022-08-14T01:43:28.116Z,0.00
2022-08-14T01:44:32.596Z,0.00
2022-08-14T01:45:28.080Z,0.00
2022-08-14T01:46:33.354Z,0.00
2022-08-14T01:47:37.356Z,0.00
2022-08-14T01:48:28.045Z,0.00
2022-08-14T01:49:35.103Z,0.00
2022-08-14T01:50:28.029Z,0.00
2022-08-14T01:51:28.034Z,0.00
2022-08-14T01:52:34.178Z,0.00
2022-08-14T01:53:31.542Z,0.00
2022-08-14T01:54:37.850Z,0.00
2022-08-14T01:55:27.968Z,0.00
2022-08-14T01:56:27.963Z,0.00
2022-08-14T01:57:49.167Z,0.00
2022-08-14T01:58:28.547Z,0.00
2022-08-14T01:59:38.267Z,0.00
2022-08-14T02:00:27.971Z,0.00
2022-08-14T02:01:27.938Z,0.00
2022-08-14T02:02:27.925Z,0.00
2022-08-14T02:03:29.641Z,0.00
2022-08-14T02:04:54.668Z,0.00
2022-08-14T02:05:27.863Z,0.00
2022-08-14T02:06:32.109Z,0.00
2022-08-14T02:07:44.901Z,0.00
2022-08-14T02:08:34.686Z,0.00
2022-08-14T02:09:27.818Z,0.00
2022-08-14T02:10:27.809Z,0.00
2022-08-14T02:11:29.103Z,0.00
2022-08-14T02:12:29.197Z,0.00
2022-08-14T02:13:27.779Z,0.00
2022-08-14T02:14:31.259Z,0.00
2022-08-14T02:15:27.758Z,0.00
2022-08-14T02:16:27.736Z,0.00
2022-08-14T02:17:27.756Z,0.00
2022-08-14T02:18:27.720Z,0.00
2022-08-14T02:19:27.720Z,0.00
2022-08-14T02:20:27.700Z,0.00
2022-08-14T02:21:27.691Z,0.00
2022-08-14T02:22:32.720Z,0.00
2022-08-14T02:23:32.428Z,0.00
2022-08-14T02:24:39.043Z,0.00
2022-08-14T02:25:29.990Z,0.00
2022-08-14T02:26:29.814Z,0.00
2022-08-14T02:28:23.366Z,0.00
2022-08-14T02:28:57.334Z,0.00
2022-08-14T02:29:27.597Z,0.00
2022-08-14T02:30:30.741Z,0.00
2022-08-14T02:31:28.643Z,0.00
2022-08-14T02:32:30.379Z,0.00
2022-08-14T02:33:29.392Z,0.00
2022-08-14T02:34:27.714Z,0.00
2022-08-14T02:35:32.801Z,0.00
2022-08-14T02:37:03.902Z,0.00
2022-08-14T02:37:47.013Z,0.00
2022-08-14T02:38:30.243Z,0.00
2022-08-14T02:39:27.771Z,0.00
2022-08-14T02:40:32.624Z,0.00
2022-08-14T02:41:28.897Z,0.00
2022-08-14T02:42:37.051Z,0.00
2022-08-14T02:43:37.352Z,0.00
2022-08-14T02:44:29.480Z,0.00
2022-08-14T02:45:32.939Z,0.00
2022-08-14T02:46:32.249Z,0.00
2022-08-14T02:49:04.921Z,0.00
2022-08-14T02:49:37.352Z,0.00
2022-08-14T02:50:37.341Z,0.00
2022-08-14T02:51:37.326Z,0.00
2022-08-14T02:53:13.223Z,0.00
2022-08-14T02:53:37.566Z,0.00
2022-08-14T02:54:37.314Z,0.00
2022-08-14T02:55:37.280Z,0.00
2022-08-14T02:57:15.562Z,0.00
2022-08-14T02:57:39.858Z,0.00
2022-08-14T02:58:37.264Z,0.00
2022-08-14T02:59:37.263Z,0.00
2022-08-14T03:00:39.966Z,0.00
2022-08-14T03:01:50.222Z,0.00
2022-08-14T03:02:56.797Z,0.00
2022-08-14T03:03:38.870Z,0.00
2022-08-14T03:04:37.179Z,0.00
2022-08-14T03:05:41.350Z,0.00
2022-08-14T03:06:57.335Z,0.00
2022-08-14T03:07:37.156Z,0.00
2022-08-14T03:08:37.137Z,0.00
2022-08-14T03:09:42.299Z,0.00
2022-08-14T03:10:37.143Z,0.00
2022-08-14T03:11:37.400Z,0.00
2022-08-14T03:12:37.147Z,0.00
2022-08-14T03:13:37.096Z,0.00
2022-08-14T03:14:37.084Z,0.00
2022-08-14T03:15:37.065Z,0.00
2022-08-14T03:16:38.621Z,0.00
2022-08-14T03:17:40.960Z,0.00
2022-08-14T03:18:37.030Z,0.00
2022-08-14T03:19:37.022Z,0.00
2022-08-14T03:20:37.008Z,0.00
2022-08-14T03:21:36.997Z,0.00
2022-08-14T03:22:36.990Z,0.00
2022-08-14T03:23:38.555Z,0.00
2022-08-14T03:24:36.963Z,0.00
2022-08-14T03:25:37.527Z,0.00
2022-08-14T03:26:36.944Z,0.00
2022-08-14T03:27:48.253Z,0.00
2022-08-14T03:28:36.922Z,0.00
2022-08-14T03:29:36.908Z,0.00
2022-08-14T03:30:39.687Z,0.00
2022-08-14T03:31:36.888Z,0.00
2022-08-14T03:32:36.903Z,0.00
2022-08-14T03:33:38.007Z,0.00
2022-08-14T03:34:47.871Z,0.00
2022-08-14T03:35:40.370Z,0.00
2022-08-14T03:39:11.543Z,0.00
2022-08-14T03:39:21.538Z,0.00
2022-08-14T03:39:46.823Z,0.00
2022-08-14T03:40:46.759Z,0.00
2022-08-14T03:41:46.762Z,0.00
2022-08-14T03:42:46.890Z,0.00
2022-08-14T03:43:46.721Z,0.00
2022-08-14T03:45:19.258Z,0.00
2022-08-14T03:45:48.050Z,0.00
2022-08-14T03:46:54.850Z,0.00
2022-08-14T03:47:58.467Z,0.00
2022-08-14T03:48:46.697Z,0.00
2022-08-14T03:49:50.109Z,0.00
2022-08-14T03:50:47.017Z,0.00
2022-08-14T03:51:46.635Z,0.00
2022-08-14T03:52:48.104Z,0.00
2022-08-14T03:53:46.657Z,0.00
2022-08-14T03:54:46.612Z,0.00
2022-08-14T03:55:46.594Z,0.00
2022-08-14T03:56:46.582Z,0.00
2022-08-14T03:57:46.567Z,0.00
2022-08-14T03:58:46.573Z,0.00
2022-08-14T03:59:46.545Z,0.00
2022-08-14T04:00:46.650Z,0.00
2022-08-14T04:01:57.925Z,0.00
2022-08-14T04:02:47.031Z,0.00
2022-08-14T04:03:46.500Z,5.62
2022-08-14T04:04:46.488Z,5.62
2022-08-14T04:05:49.034Z,5.62
2022-08-14T04:06:48.530Z,5.62
2022-08-14T04:07:49.752Z,5.62
2022-08-14T04:08:46.443Z,5.62
2022-08-14T04:09:46.435Z,5.62
2022-08-14T04:10:46.430Z,5.62
2022-08-14T04:11:46.434Z,11.25
2022-08-14T04:12:51.708Z,11.25
2022-08-14T04:13:46.393Z,11.25
2022-08-14T04:14:46.393Z,11.25
2022-08-14T04:15:56.131Z,16.88
2022-08-14T04:16:46.387Z,16.88
2022-08-14T04:17:46.400Z,16.88
2022-08-14T04:18:46.352Z,16.88
2022-08-14T04:19:46.325Z,16.88
2022-08-14T04:20:54.300Z,22.50
2022-08-14T04:22:02.389Z,22.50
2022-08-14T04:22:46.311Z,22.50
2022-08-14T04:23:46.539Z,22.50
2022-08-14T04:24:46.267Z,28.12
2022-08-14T04:25:46.259Z,28.12
2022-08-14T04:26:46.269Z,28.12
2022-08-14T04:28:02.106Z,33.75
2022-08-14T04:29:02.170Z,33.75
2022-08-14T04:29:46.219Z,33.75
2022-08-14T04:30:46.203Z,33.75
2022-08-14T04:32:57.335Z,39.38
2022-08-14T04:32:59.000Z,39.38
2022-08-14T04:33:46.169Z,39.38
2022-08-14T04:34:51.981Z,39.38
2022-08-14T04:35:56.460Z,45.00
2022-08-14T04:36:46.801Z,45.00
2022-08-14T04:37:46.122Z,45.00
2022-08-14T04:38:46.939Z,50.62
2022-08-14T04:39:46.725Z,50.62
2022-08-14T04:40:46.091Z,50.62
2022-08-14T04:41:46.108Z,50.62
2022-08-14T04:42:47.657Z,56.25
2022-08-14T04:43:46.056Z,56.25
2022-08-14T04:44:51.440Z,56.25
2022-08-14T04:45:46.039Z,56.25
2022-08-14T04:46:56.074Z,61.88
2022-08-14T04:47:46.465Z,61.88
2022-08-14T04:48:51.120Z,61.88
2022-08-14T04:49:56.697Z,67.50
2022-08-14T04:50:49.114Z,67.50
2022-08-14T04:51:46.794Z,67.50
2022-08-14T04:52:46.004Z,67.50
2022-08-14T04:53:45.956Z,73.12
2022-08-14T04:54:45.932Z,73.12
2022-08-14T04:55:46.131Z,73.12
2022-08-14T04:56:45.914Z,73.12
2022-08-14T04:57:45.925Z,78.75
2022-08-14T04:58:45.898Z,78.75
2022-08-14T04:59:45.889Z,78.75
2022-08-14T05:00:45.878Z,84.38
2022-08-14T05:01:48.853Z,84.38
2022-08-14T05:02:46.161Z,84.38
2022-08-14T05:03:45.842Z,90.00
2022-08-14T05:04:58.464Z,90.00
2022-08-14T05:05:45.810Z,90.00
2022-08-14T05:06:45.806Z,90.00
2022-08-14T05:07:54.159Z,95.62
2022-08-14T05:08:56.935Z,95.62
2022-08-14T05:09:47.872Z,95.62
2022-08-14T05:10:45.784Z,101.25
2022-08-14T05:11:45.749Z,101.25
2022-08-14T05:13:13.281Z,101.25
2022-08-14T05:14:53.294Z,106.88
2022-08-14T05:15:45.722Z,106.88
2022-08-14T05:16:46.821Z,112.50
2022-08-14T05:17:53.878Z,118.12
2022-08-14T05:19:18.019Z,129.38
2022-08-14T05:21:04.126Z,118.12
2022-08-14T05:21:55.987Z,219.38
2022-08-14T05:21:58.292Z,157.50
2022-08-14T05:22:45.855Z,264.38
2022-08-14T05:23:45.621Z,270.00
2022-08-14T05:24:45.620Z,281.25
2022-08-14T05:25:45.628Z,286.88
2022-08-14T05:26:45.586Z,292.50
2022-08-14T05:27:45.574Z,298.12
2022-08-14T05:28:45.563Z,303.75
2022-08-14T05:29:45.552Z,309.38
2022-08-14T05:30:45.551Z,309.38
2022-08-14T05:31:45.535Z,320.62
2022-08-14T05:32:46.733Z,326.25
2022-08-14T05:33:45.506Z,326.25
2022-08-14T05:34:45.790Z,331.88
2022-08-14T05:35:46.644Z,337.50
2022-08-14T05:36:50.442Z,343.12
2022-08-14T05:38:55.296Z,354.38
2022-08-14T05:39:55.616Z,360.00
2022-08-14T05:40:55.408Z,360.00
2022-08-14T05:41:55.440Z,371.25
2022-08-14T05:42:55.390Z,371.25
2022-08-14T05:43:55.391Z,376.88
2022-08-14T05:44:56.036Z,382.50
2022-08-14T05:45:55.355Z,388.12
2022-08-14T05:46:55.343Z,393.75
2022-08-14T05:47:55.327Z,393.75
2022-08-14T05:48:55.369Z,399.38
2022-08-14T05:49:55.313Z,405.00
2022-08-14T05:50:55.297Z,410.62
2022-08-14T05:51:55.294Z,410.62
2022-08-14T05:52:55.605Z,416.25
2022-08-14T05:54:01.828Z,410.62
2022-08-14T05:54:55.254Z,410.62
2022-08-14T05:55:55.251Z,410.62
2022-08-14T05:56:55.355Z,410.62
2022-08-14T05:57:59.419Z,410.62
2022-08-14T05:58:55.241Z,416.25
2022-08-14T05:59:55.205Z,416.25
2022-08-14T06:00:55.207Z,421.88
2022-08-14T06:01:55.212Z,427.50
2022-08-14T06:02:55.172Z,433.12
2022-08-14T06:03:55.189Z,433.12
2022-08-14T06:04:55.146Z,438.75
2022-08-14T06:05:55.139Z,450.00
2022-08-14T06:06:55.127Z,528.75
2022-08-14T06:07:55.115Z,618.75
2022-08-14T06:08:55.126Z,663.75
2022-08-14T06:09:55.105Z,691.88
2022-08-14T06:10:55.082Z,697.50
2022-08-14T06:11:55.074Z,669.38
2022-08-14T06:12:56.382Z,635.62
2022-08-14T06:13:55.073Z,624.38
2022-08-14T06:14:55.065Z,641.25
2022-08-14T06:15:55.025Z,680.62
2022-08-14T06:16:55.017Z,686.25
2022-08-14T06:17:58.661Z,691.88
2022-08-14T06:18:54.998Z,798.75
2022-08-14T06:19:54.992Z,860.62
2022-08-14T06:20:54.983Z,748.12
2022-08-14T06:21:58.215Z,680.62
2022-08-14T06:22:54.964Z,731.25
2022-08-14T06:23:54.953Z,753.75
2022-08-14T06:24:54.948Z,753.75
2022-08-14T06:25:54.930Z,776.25
2022-08-14T06:26:57.031Z,776.25
2022-08-14T06:27:54.957Z,770.62
2022-08-14T06:28:54.888Z,793.12
2022-08-14T06:29:54.880Z,849.38
2022-08-14T06:30:54.869Z,922.50
2022-08-14T06:32:00.095Z,894.38
2022-08-14T06:32:55.317Z,815.62
2022-08-14T06:35:03.966Z,843.75
2022-08-14T06:35:11.110Z,804.38
2022-08-14T06:35:54.833Z,922.50
2022-08-14T06:36:54.803Z,1006.88
2022-08-14T06:37:54.934Z,1035.00
2022-08-14T06:38:54.780Z,922.50
2022-08-14T06:39:54.800Z,871.88
2022-08-14T06:40:54.760Z,978.75
2022-08-14T06:41:58.390Z,1051.88
2022-08-14T06:42:54.836Z,1023.75
2022-08-14T06:43:54.725Z,1023.75
2022-08-14T06:44:54.713Z,1068.75
2022-08-14T06:45:54.843Z,1035.00
2022-08-14T06:46:54.705Z,1006.88
2022-08-14T06:47:54.700Z,1040.62
2022-08-14T06:48:54.666Z,1119.38
2022-08-14T06:49:58.121Z,1102.50
2022-08-14T06:50:54.650Z,990.00
2022-08-14T06:51:54.635Z,961.88
2022-08-14T06:52:54.640Z,1006.88
2022-08-14T06:53:54.614Z,1046.25
2022-08-14T06:54:54.604Z,1074.38
2022-08-14T06:56:00.763Z,1085.62
2022-08-14T06:56:54.602Z,1091.25
2022-08-14T06:57:54.598Z,1130.62
2022-08-14T06:58:54.570Z,1175.62
2022-08-14T06:59:54.549Z,1209.38
2022-08-14T07:00:54.598Z,1175.62
2022-08-14T07:01:56.553Z,1080.00
2022-08-14T07:02:54.544Z,1057.50
2022-08-14T07:03:54.507Z,1181.25
2022-08-14T07:04:54.509Z,1305.00
2022-08-14T07:05:55.886Z,1271.25
2022-08-14T07:06:55.866Z,1260.00
2022-08-14T07:07:54.514Z,1282.50
2022-08-14T07:08:54.457Z,1310.62
2022-08-14T07:09:54.441Z,1378.12
2022-08-14T07:10:54.433Z,1355.62
2022-08-14T07:11:54.422Z,1243.12
2022-08-14T07:13:03.993Z,1237.50
2022-08-14T07:13:54.409Z,1327.50
2022-08-14T07:15:00.982Z,1400.62
2022-08-14T07:15:55.185Z,1462.50
2022-08-14T07:16:54.376Z,1445.62
2022-08-14T07:17:54.381Z,1389.38
2022-08-14T07:18:54.349Z,1378.12
2022-08-14T07:19:54.341Z,1366.88
2022-08-14T07:20:54.325Z,1395.00
2022-08-14T07:21:54.316Z,1462.50
2022-08-14T07:22:56.897Z,1490.62
2022-08-14T07:23:54.307Z,1501.88
2022-08-14T07:24:54.278Z,1513.12
2022-08-14T07:25:54.273Z,1440.00
2022-08-14T07:26:54.265Z,1372.50
2022-08-14T07:27:54.272Z,1428.75
2022-08-14T07:28:54.242Z,1496.25
2022-08-14T07:29:54.229Z,1507.50
2022-08-14T07:30:54.219Z,1535.62
2022-08-14T07:31:54.201Z,1575.00
2022-08-14T07:32:54.205Z,1535.62
2022-08-14T07:33:54.192Z,1440.00
2022-08-14T07:34:54.178Z,1406.25
2022-08-14T07:35:57.705Z,1496.25
2022-08-14T07:37:01.205Z,1558.12
2022-08-14T07:37:54.143Z,1563.75
2022-08-14T07:40:03.531Z,1530.00
2022-08-14T07:41:04.370Z,1614.38
2022-08-14T07:42:04.390Z,1698.75
2022-08-14T07:43:14.371Z,1715.62
2022-08-14T07:44:32.644Z,1670.62
2022-08-14T07:45:04.327Z,1541.25
2022-08-14T07:46:04.347Z,1445.62
2022-08-14T07:47:05.225Z,1456.88
2022-08-14T07:48:04.579Z,1535.62
2022-08-14T07:49:04.294Z,1575.00
2022-08-14T07:50:04.274Z,1597.50
2022-08-14T07:51:10.892Z,1620.00
2022-08-14T07:52:04.271Z,1676.25
2022-08-14T07:53:04.250Z,1755.00
2022-08-14T07:54:04.245Z,1811.25
2022-08-14T07:55:04.246Z,1788.75
2022-08-14T07:56:08.941Z,1743.75
2022-08-14T07:57:11.982Z,1738.12
2022-08-14T07:58:05.969Z,1766.25
2022-08-14T07:59:04.179Z,1777.50
2022-08-14T08:00:04.211Z,1783.12
2022-08-14T08:01:04.161Z,1805.62
2022-08-14T08:02:04.154Z,1816.88
2022-08-14T08:03:04.248Z,1878.75
2022-08-14T08:04:04.135Z,1895.62
2022-08-14T08:05:04.142Z,1867.50
2022-08-14T08:06:04.114Z,1839.38
2022-08-14T08:07:05.498Z,1873.12
2022-08-14T08:08:04.145Z,1957.50
2022-08-14T08:09:04.086Z,2036.25
2022-08-14T08:10:04.096Z,2041.88
2022-08-14T08:11:04.060Z,2025.00
2022-08-14T08:12:04.820Z,1951.88
2022-08-14T08:13:04.036Z,1873.12
2022-08-14T08:14:04.018Z,1861.88
2022-08-14T08:15:07.199Z,1918.12
2022-08-14T08:16:04.006Z,1974.38
2022-08-14T08:17:04.003Z,2064.38
2022-08-14T08:18:04.135Z,2120.62
2022-08-14T08:19:12.665Z,2075.62
2022-08-14T08:20:03.955Z,1991.25
2022-08-14T08:21:03.976Z,1918.12
2022-08-14T08:22:03.936Z,1839.38
2022-08-14T08:23:06.264Z,1760.62
2022-08-14T08:24:03.928Z,1760.62
2022-08-14T08:25:06.455Z,1839.38
2022-08-14T08:26:03.921Z,1873.12
2022-08-14T08:27:03.881Z,1833.75
2022-08-14T08:28:08.240Z,1833.75
2022-08-14T08:29:03.872Z,1873.12
2022-08-14T08:30:03.853Z,1912.50
2022-08-14T08:31:03.852Z,1895.62
2022-08-14T08:32:06.258Z,1918.12
2022-08-14T08:33:03.849Z,1912.50
2022-08-14T08:34:03.804Z,1839.38
2022-08-14T08:35:03.798Z,1749.38
2022-08-14T08:36:03.806Z,1726.88
2022-08-14T08:37:07.271Z,1794.38
2022-08-14T08:38:03.794Z,1867.50
2022-08-14T08:39:15.316Z,1901.25
2022-08-14T08:40:04.332Z,1850.62
2022-08-14T08:41:03.732Z,1771.88
2022-08-14T08:42:04.204Z,1726.88
2022-08-14T08:43:03.735Z,1732.50
2022-08-14T08:44:03.709Z,1760.62
2022-08-14T08:45:03.698Z,1755.00
2022-08-14T08:46:03.694Z,1771.88
2022-08-14T08:47:03.804Z,1828.12
2022-08-14T08:48:03.700Z,1951.88
2022-08-14T08:49:03.656Z,2019.38
2022-08-14T08:50:03.639Z,2053.12
2022-08-14T08:51:03.628Z,2036.25
2022-08-14T08:52:03.622Z,2019.38
2022-08-14T08:53:03.605Z,1974.38
2022-08-14T08:54:03.595Z,1929.38
2022-08-14T08:55:04.951Z,1867.50
2022-08-14T08:56:03.573Z,1856.25
2022-08-14T08:57:03.565Z,1940.62
2022-08-14T08:58:03.567Z,2086.88
2022-08-14T08:59:03.550Z,2272.50
2022-08-14T09:00:10.011Z,2328.75
2022-08-14T09:01:03.594Z,2317.50
2022-08-14T09:02:03.980Z,2221.88
2022-08-14T09:03:04.080Z,2193.75
2022-08-14T09:04:03.491Z,2210.62
2022-08-14T09:05:03.511Z,2216.25
2022-08-14T09:06:03.491Z,2244.38
2022-08-14T09:07:09.880Z,2244.38
2022-08-14T09:08:03.449Z,2250.00
2022-08-14T09:09:03.439Z,2300.62
2022-08-14T09:10:03.714Z,2373.75
2022-08-14T09:11:19.461Z,2441.25
2022-08-14T09:12:03.411Z,2458.12
2022-08-14T09:13:03.393Z,2401.88
2022-08-14T09:14:03.384Z,2379.38
2022-08-14T09:15:03.390Z,2401.88
2022-08-14T09:16:18.358Z,2491.88
2022-08-14T09:17:03.608Z,2503.12
2022-08-14T09:18:03.350Z,2446.88
2022-08-14T09:19:03.378Z,2379.38
2022-08-14T09:20:04.099Z,2334.38
2022-08-14T09:21:03.321Z,2334.38
2022-08-14T09:22:03.308Z,2323.12
2022-08-14T09:23:03.289Z,2272.50
2022-08-14T09:24:29.193Z,2244.38
2022-08-14T09:25:03.273Z,2176.88
2022-08-14T09:26:04.957Z,2115.00
2022-08-14T09:27:03.244Z,2137.50
2022-08-14T09:28:03.240Z,2255.62
2022-08-14T09:29:03.244Z,2356.88
2022-08-14T09:30:12.675Z,2413.12
2022-08-14T09:31:07.386Z,2340.00
2022-08-14T09:32:03.192Z,2227.50
2022-08-14T09:33:11.721Z,2182.50
2022-08-14T09:34:04.360Z,2199.38
2022-08-14T09:35:03.195Z,2233.12
2022-08-14T09:36:03.162Z,2334.38
2022-08-14T09:37:03.150Z,2379.38
2022-08-14T09:38:03.132Z,2311.88
2022-08-14T09:39:03.122Z,2250.00
2022-08-14T09:41:12.019Z,2334.38
2022-08-14T09:42:21.406Z,2311.88
2022-08-14T09:43:12.696Z,2295.00
2022-08-14T09:44:12.687Z,2407.50
2022-08-14T09:45:12.671Z,2435.62
2022-08-14T09:46:16.946Z,2362.50
2022-08-14T09:47:14.637Z,2306.25
2022-08-14T09:48:12.644Z,2278.12
2022-08-14T09:49:16.408Z,2283.75
2022-08-14T09:50:12.654Z,2345.62
2022-08-14T09:51:12.668Z,2430.00
2022-08-14T09:52:33.370Z,2435.62
2022-08-14T09:53:18.477Z,2385.00
2022-08-14T09:54:22.633Z,2385.00
2022-08-14T09:55:12.570Z,2491.88
2022-08-14T09:56:12.586Z,2587.50
2022-08-14T09:57:12.550Z,2593.12
2022-08-14T09:58:19.279Z,2508.75
2022-08-14T09:59:12.523Z,2435.62
2022-08-14T10:00:29.548Z,2368.12
2022-08-14T10:01:12.517Z,2379.38
2022-08-14T10:02:12.544Z,2368.12
2022-08-14T10:03:12.537Z,2424.38
2022-08-14T10:04:12.475Z,2480.62
2022-08-14T10:05:13.129Z,2491.88
2022-08-14T10:06:12.666Z,2441.25
2022-08-14T10:07:12.515Z,2356.88
2022-08-14T10:08:14.846Z,2311.88
2022-08-14T10:09:16.770Z,2356.88
2022-08-14T10:10:23.603Z,2396.25
2022-08-14T10:11:12.428Z,2396.25
2022-08-14T10:12:13.373Z,2328.75
2022-08-14T10:13:12.405Z,2362.50
2022-08-14T10:14:12.365Z,2362.50
2022-08-14T10:15:12.363Z,2373.75
2022-08-14T10:16:25.663Z,2407.50
2022-08-14T10:17:12.346Z,2435.62
2022-08-14T10:18:13.403Z,2475.00
2022-08-14T10:19:12.326Z,2446.88
2022-08-14T10:20:40.478Z,2446.88
2022-08-14T10:21:12.327Z,2385.00
2022-08-14T10:23:14.964Z,2306.25
2022-08-14T10:23:16.288Z,2351.25
2022-08-14T10:24:12.268Z,2385.00
2022-08-14T10:25:12.254Z,2373.75
2022-08-14T10:26:23.168Z,2340.00
2022-08-14T10:27:12.242Z,2334.38
2022-08-14T10:28:39.461Z,2356.88
2022-08-14T10:29:20.159Z,2340.00
2022-08-14T10:30:12.360Z,2306.25
2022-08-14T10:31:12.199Z,2300.62
2022-08-14T10:32:17.913Z,2278.12
2022-08-14T10:33:12.199Z,2205.00
2022-08-14T10:34:12.998Z,2182.50
2022-08-14T10:35:14.337Z,2165.62
2022-08-14T10:36:15.506Z,2233.12
2022-08-14T10:37:14.624Z,2255.62
2022-08-14T10:38:12.136Z,2283.75
2022-08-14T10:39:12.170Z,2266.88
2022-08-14T10:40:38.604Z,2205.00
2022-08-14T10:41:12.169Z,2171.25
2022-08-14T10:42:16.602Z,2233.12
2022-08-14T10:43:12.078Z,2278.12
2022-08-14T10:44:21.576Z,2295.00
2022-08-14T10:45:12.077Z,2283.75
2022-08-14T10:47:36.449Z,2216.25
2022-08-14T10:47:39.554Z,2176.88
2022-08-14T10:48:24.394Z,2233.12
2022-08-14T10:49:12.006Z,2300.62
2022-08-14T10:50:14.896Z,2266.88
2022-08-14T10:51:11.981Z,2092.50
2022-08-14T10:52:11.974Z,2025.00
2022-08-14T10:53:11.957Z,2030.62
2022-08-14T10:54:17.131Z,2047.50
2022-08-14T10:55:12.702Z,2030.62
2022-08-14T10:56:21.181Z,2092.50
2022-08-14T10:57:11.917Z,2075.62
2022-08-14T10:58:11.912Z,2092.50
2022-08-14T10:59:11.894Z,2098.12
2022-08-14T11:00:11.885Z,2137.50
2022-08-14T11:01:11.905Z,2188.12
2022-08-14T11:02:11.868Z,2193.75
2022-08-14T11:03:11.854Z,2216.25
2022-08-14T11:04:11.893Z,2165.62
2022-08-14T11:05:11.839Z,1935.00
2022-08-14T11:06:11.849Z,2193.75
2022-08-14T11:07:11.822Z,2244.38
2022-08-14T11:08:12.756Z,2250.00
2022-08-14T11:09:11.793Z,2227.50
2022-08-14T11:10:11.778Z,2154.38
2022-08-14T11:11:11.795Z,2165.62
2022-08-14T11:12:34.846Z,2176.88
2022-08-14T11:13:11.750Z,2176.88
2022-08-14T11:14:11.747Z,2182.50
2022-08-14T11:15:11.746Z,2182.50
2022-08-14T11:16:11.745Z,2148.75
2022-08-14T11:17:11.710Z,826.88
2022-08-14T11:18:12.004Z,455.62
2022-08-14T11:19:11.694Z,534.38
2022-08-14T11:20:13.943Z,573.75
2022-08-14T11:21:11.693Z,2137.50
2022-08-14T11:22:15.321Z,2289.38
2022-08-14T11:23:11.649Z,2295.00
2022-08-14T11:24:54.462Z,2205.00
2022-08-14T11:25:11.644Z,2109.38
2022-08-14T11:26:11.641Z,1963.12
2022-08-14T11:27:11.606Z,1951.88
2022-08-14T11:28:14.496Z,1912.50
2022-08-14T11:29:11.581Z,1867.50
2022-08-14T11:30:51.714Z,1906.88
2022-08-14T11:31:11.578Z,2002.50
2022-08-14T11:32:11.551Z,1991.25
2022-08-14T11:33:11.540Z,1963.12
2022-08-14T11:34:32.253Z,1760.62
2022-08-14T11:35:11.523Z,1850.62
2022-08-14T11:36:18.553Z,1957.50
2022-08-14T11:37:22.815Z,2041.88
2022-08-14T11:38:11.493Z,2109.38
2022-08-14T11:39:11.467Z,2075.62
2022-08-14T11:40:11.519Z,1209.38
2022-08-14T11:42:57.959Z,1890.00
2022-08-14T11:43:22.640Z,1794.38
2022-08-14T11:44:45.418Z,1856.25
2022-08-14T11:45:23.186Z,1918.12
2022-08-14T11:46:30.574Z,1974.38
2022-08-14T11:47:21.350Z,1996.88
2022-08-14T11:49:02.563Z,1996.88
2022-08-14T11:49:22.126Z,1923.75
2022-08-14T11:50:33.747Z,1878.75
2022-08-14T11:51:24.036Z,1850.62
2022-08-14T11:52:21.692Z,1856.25
2022-08-14T11:53:21.287Z,1794.38
2022-08-14T11:54:33.607Z,1738.12
2022-08-14T11:55:25.577Z,1726.88
2022-08-14T11:56:25.359Z,1755.00
2022-08-14T11:57:22.882Z,1828.12
2022-08-14T11:58:23.945Z,1884.38
2022-08-14T11:59:26.176Z,1861.88
2022-08-14T12:00:21.216Z,1074.38
2022-08-14T12:01:21.197Z,556.88
2022-08-14T12:03:01.030Z,1805.62
2022-08-14T12:03:37.366Z,1923.75
2022-08-14T12:04:32.811Z,1996.88
2022-08-14T12:05:21.335Z,1833.75
2022-08-14T12:06:28.115Z,1828.12
2022-08-14T12:07:21.145Z,1777.50
2022-08-14T12:08:24.258Z,1766.25
2022-08-14T12:09:21.123Z,1715.62
2022-08-14T12:10:25.494Z,1552.50
2022-08-14T12:11:21.117Z,500.62
2022-08-14T12:12:36.088Z,787.50
2022-08-14T12:13:22.450Z,500.62
2022-08-14T12:14:31.156Z,1147.50
2022-08-14T12:15:21.065Z,1738.12
2022-08-14T12:16:21.095Z,1788.75
2022-08-14T12:17:23.982Z,1822.50
2022-08-14T12:18:21.037Z,1906.88
2022-08-14T12:19:21.029Z,1642.50
2022-08-14T12:20:30.028Z,1653.75
2022-08-14T12:21:21.017Z,1625.62
2022-08-14T12:22:29.569Z,1552.50
2022-08-14T12:23:20.979Z,1400.62
2022-08-14T12:24:35.980Z,1068.75
2022-08-14T12:25:20.963Z,1513.12
2022-08-14T12:26:39.455Z,1535.62
2022-08-14T12:27:25.055Z,1170.00
2022-08-14T12:28:27.216Z,1091.25
2022-08-14T12:29:20.943Z,1276.88
2022-08-14T12:30:20.897Z,1108.12
2022-08-14T12:31:21.398Z,961.88
2022-08-14T12:32:20.877Z,961.88
2022-08-14T12:33:20.898Z,1175.62
2022-08-14T12:34:24.065Z,534.38
2022-08-14T12:35:20.909Z,517.50
2022-08-14T12:36:20.960Z,523.12
2022-08-14T12:37:20.857Z,540.00
2022-08-14T12:38:21.276Z,585.00
2022-08-14T12:39:20.925Z,545.62
2022-08-14T12:40:21.132Z,455.62
2022-08-14T12:41:21.866Z,438.75
2022-08-14T12:42:27.419Z,461.25
2022-08-14T12:43:21.456Z,489.38
2022-08-14T12:44:20.752Z,500.62